Time;durP1;ratioP1;P1;durP2;ratioP2;P2;SDS_P1;SDS_P2;PMS_P1;PMS_P2;Temp;Humidity;BMP_temperature;BMP_pressure;BME280_temperature;BME280_humidity;BME280_pressure;Samples;Min_cycle;Max_cycle;Signal;HPM_P1;HPM_P2
2022/09/09 00:01:20;;;;;;;0.88;0.70;;;17.60;96.80;;;;;;5071796;28;20032;-74
2022/09/09 00:04:29;;;;;;;1.35;0.65;;;17.60;96.60;;;;;;5070995;28;20035;-74
2022/09/09 00:07:23;;;;;;;0.93;0.70;;;17.70;96.40;;;;;;5031960;28;20036;-74
2022/09/09 00:10:05;;;;;;;0.63;0.63;;;17.60;96.40;;;;;;5070806;28;20029;-74
2022/09/09 00:12:39;;;;;;;1.55;0.80;;;17.60;96.30;;;;;;5053280;28;20035;-73
2022/09/09 00:15:12;;;;;;;2.40;0.50;;;17.70;96.20;;;;;;5071290;28;20460;-74
2022/09/09 00:18:03;;;;;;;1.27;0.40;;;17.60;96.10;;;;;;5074743;28;20024;-74
2022/09/09 00:20:53;;;;;;;0.88;0.68;;;17.60;96.10;;;;;;5075155;28;20051;-74
2022/09/09 00:23:25;;;;;;;1.03;0.40;;;17.60;96.00;;;;;;5075201;28;20390;-74
2022/09/09 00:26:25;;;;;;;2.47;0.50;;;17.60;95.90;;;;;;5074438;28;20445;-74
2022/09/09 00:29:07;;;;;;;1.38;0.50;;;17.60;96.10;;;;;;5074253;28;20469;-74
2022/09/09 00:31:33;;;;;;;1.23;0.50;;;17.60;96.10;;;;;;5074141;28;20123;-73
2022/09/09 00:34:12;;;;;;;1.48;0.60;;;17.60;96.40;;;;;;5074030;28;20082;-73
2022/09/09 00:36:39;;;;;;;1.42;0.88;;;17.60;96.60;;;;;;5074273;28;20029;-73
2022/09/09 00:39:09;;;;;;;0.65;0.57;;;17.50;96.70;;;;;;5074473;28;20032;-73
2022/09/09 00:41:42;;;;;;;1.98;0.70;;;17.50;96.90;;;;;;5074252;28;20032;-74
2022/09/09 00:44:35;;;;;;;1.08;0.52;;;17.50;97.00;;;;;;5074472;28;20111;-73
2022/09/09 00:47:10;;;;;;;2.70;0.57;;;17.50;97.00;;;;;;5069665;28;20055;-73
2022/09/09 00:50:00;;;;;;;6.68;0.82;;;17.40;97.20;;;;;;5074659;28;20338;-75
2022/09/09 00:52:47;;;;;;;2.90;0.47;;;17.40;97.20;;;;;;5074577;28;20032;-73
2022/09/09 00:55:41;;;;;;;1.05;0.57;;;17.40;97.30;;;;;;5075132;28;20039;-73
2022/09/09 00:58:08;;;;;;;0.47;0.45;;;17.40;97.30;;;;;;5087935;28;20139;-73
2022/09/09 01:00:44;;;;;;;1.20;0.50;;;17.30;97.60;;;;;;5086972;28;20029;-73
2022/09/09 01:03:25;;;;;;;0.57;0.57;;;17.30;97.60;;;;;;5074105;28;20048;-74
2022/09/09 01:05:51;;;;;;;;;;;17.30;97.70;;;;;;5073956;28;20415;-74
2022/09/09 01:08:19;;;;;;;0.98;0.50;;;17.30;97.70;;;;;;5074059;28;19912;-73
2022/09/09 01:10:55;;;;;;;1.15;0.80;;;17.20;97.80;;;;;;5073714;28;20190;-74
2022/09/09 01:13:25;;;;;;;0.43;0.43;;;17.20;97.70;;;;;;5074070;28;20047;-74
2022/09/09 01:15:53;;;;;;;0.82;0.40;;;17.20;97.90;;;;;;5073694;28;20029;-74
2022/09/09 01:18:23;;;;;;;1.70;0.50;;;17.10;97.80;;;;;;5073835;28;20099;-73
2022/09/09 01:21:01;;;;;;;0.73;0.52;;;17.10;97.90;;;;;;5073728;28;20052;-75
2022/09/09 01:24:25;;;;;;;0.50;0.47;;;17.10;97.90;;;;;;5074106;28;20033;-74
2022/09/09 01:26:56;;;;;;;0.75;0.40;;;17.10;98.00;;;;;;5030764;28;20044;-73
2022/09/09 01:29:23;;;;;;;1.77;0.60;;;17.10;98.00;;;;;;5031162;28;20029;-74
2022/09/09 01:32:00;;;;;;;0.93;0.50;;;17.10;98.10;;;;;;5051885;28;20120;-74
2022/09/09 01:34:35;;;;;;;0.50;0.50;;;17.10;98.00;;;;;;5072897;28;20104;-74
2022/09/09 01:37:06;;;;;;;0.30;0.30;;;17.10;98.00;;;;;;5073342;28;20079;-74
2022/09/09 01:39:34;;;;;;;0.70;0.50;;;17.10;98.00;;;;;;5073725;28;20036;-74
2022/09/09 01:42:01;;;;;;;0.50;0.40;;;17.00;98.10;;;;;;5073240;28;20500;-74
2022/09/09 01:44:29;;;;;;;0.38;0.38;;;17.00;98.10;;;;;;5073393;28;20021;-74
2022/09/09 01:46:55;;;;;;;1.67;0.60;;;16.90;98.20;;;;;;5072268;28;20028;-73
2022/09/09 01:49:21;;;;;;;0.70;0.50;;;17.00;98.30;;;;;;5073026;28;20094;-74
2022/09/09 01:51:51;;;;;;;1.85;0.70;;;17.00;98.20;;;;;;5072654;28;20086;-73
2022/09/09 01:54:18;;;;;;;1.55;0.40;;;16.90;98.20;;;;;;5072891;28;20031;-73
2022/09/09 01:57:24;;;;;;;0.40;0.40;;;16.90;98.30;;;;;;5072296;28;20047;-74
2022/09/09 02:00:09;;;;;;;1.58;0.60;;;16.90;98.20;;;;;;5007328;28;20048;-74
2022/09/09 02:02:41;;;;;;;0.52;0.50;;;16.90;98.30;;;;;;5073386;28;20073;-74
2022/09/09 02:05:17;;;;;;;1.50;0.50;;;16.90;98.40;;;;;;5073068;28;20063;-74
2022/09/09 02:07:49;;;;;;;1.98;0.40;;;16.90;98.20;;;;;;5072631;28;20496;-75
2022/09/09 02:10:24;;;;;;;1.17;0.95;;;16.80;98.10;;;;;;5073393;28;20025;-74
2022/09/09 02:13:09;;;;;;;0.68;0.50;;;16.80;98.30;;;;;;5072751;28;20020;-74
2022/09/09 02:16:06;;;;;;;1.55;0.60;;;16.80;98.40;;;;;;5073078;28;20039;-74
2022/09/09 02:18:45;;;;;;;2.63;0.60;;;16.80;98.50;;;;;;5073078;28;20127;-74
2022/09/09 02:21:13;;;;;;;0.50;0.50;;;16.80;98.50;;;;;;5073083;28;20032;-74
2022/09/09 02:23:42;;;;;;;0.57;0.40;;;16.80;98.40;;;;;;5072973;28;20024;-74
2022/09/09 02:26:11;;;;;;;1.52;0.60;;;16.80;98.50;;;;;;5072347;28;20044;-74
2022/09/09 02:28:39;;;;;;;3.90;0.60;;;16.80;98.50;;;;;;5072556;28;20107;-74
2022/09/09 02:31:05;;;;;;;0.57;0.45;;;16.70;98.50;;;;;;5074281;28;20064;-74
2022/09/09 02:33:36;;;;;;;0.73;0.52;;;16.70;98.60;;;;;;5072662;28;20461;-74
2022/09/09 02:36:03;;;;;;;;;;;16.70;98.70;;;;;;5072255;28;20025;-74
2022/09/09 02:38:34;;;;;;;3.75;0.80;;;16.70;98.70;;;;;;5072341;28;20014;-74
2022/09/09 02:41:01;;;;;;;1.35;0.60;;;16.70;98.70;;;;;;5071378;28;20024;-74
2022/09/09 02:43:34;;;;;;;0.75;0.65;;;16.70;98.50;;;;;;5072207;28;20504;-74
2022/09/09 02:46:28;;;;;;;1.75;0.50;;;16.70;98.40;;;;;;5072142;28;20021;-74
2022/09/09 02:49:08;;;;;;;0.40;0.40;;;16.70;98.30;;;;;;5072173;28;20027;-74
2022/09/09 02:52:00;;;;;;;1.38;0.70;;;16.70;98.30;;;;;;5072359;28;20047;-74
2022/09/09 02:54:31;;;;;;;0.47;0.45;;;16.70;98.20;;;;;;5072470;28;20361;-74
2022/09/09 02:57:06;;;;;;;0.55;0.55;;;16.70;98.20;;;;;;5071682;28;20461;-74
2022/09/09 02:59:33;;;;;;;0.65;0.57;;;16.70;98.30;;;;;;5072403;28;20028;-74
2022/09/09 03:01:59;;;;;;;5.63;0.60;;;16.70;98.30;;;;;;5071740;28;20028;-73
2022/09/09 03:04:24;;;;;;;0.60;0.40;;;16.70;98.20;;;;;;5054124;28;20025;-74
2022/09/09 03:06:50;;;;;;;1.10;0.75;;;16.70;98.20;;;;;;5071639;28;20070;-74
2022/09/09 03:09:16;;;;;;;0.93;0.60;;;16.80;98.10;;;;;;5072107;28;20516;-74
2022/09/09 03:11:42;;;;;;;0.50;0.50;;;16.80;98.10;;;;;;5071931;28;20028;-74
2022/09/09 03:14:08;;;;;;;2.78;0.50;;;16.80;98.10;;;;;;5053550;28;20025;-74
2022/09/09 03:16:34;;;;;;;0.65;0.43;;;16.80;98.10;;;;;;5071699;28;20384;-74
2022/09/09 03:19:00;;;;;;;0.50;0.50;;;16.80;98.10;;;;;;5071191;28;20028;-74
2022/09/09 03:21:26;;;;;;;2.95;0.75;;;16.80;98.30;;;;;;5071711;28;20033;-74
2022/09/09 03:23:52;;;;;;;2.10;0.57;;;16.80;98.10;;;;;;5071047;28;20031;-74
2022/09/09 03:26:17;;;;;;;1.58;0.50;;;16.80;98.30;;;;;;5071575;28;20074;-74
2022/09/09 03:28:44;;;;;;;0.70;0.70;;;16.80;98.40;;;;;;5071844;28;20021;-74
2022/09/09 03:31:10;;;;;;;2.38;0.63;;;16.80;98.40;;;;;;5079820;28;20040;-74
2022/09/09 03:33:40;;;;;;;1.00;0.60;;;16.70;98.50;;;;;;5091909;28;20039;-74
2022/09/09 03:36:08;;;;;;;0.82;0.55;;;16.80;98.40;;;;;;5091378;28;20076;-74
2022/09/09 03:38:34;;;;;;;0.60;0.52;;;16.70;98.20;;;;;;5091434;28;20487;-75
2022/09/09 03:41:01;;;;;;;0.63;0.57;;;16.70;98.40;;;;;;5091303;28;20041;-74
2022/09/09 03:43:28;;;;;;;1.45;0.50;;;16.70;98.70;;;;;;5091851;28;20027;-74
2022/09/09 03:45:56;;;;;;;3.55;0.60;;;16.70;98.90;;;;;;5091581;28;20032;-74
2022/09/09 03:48:22;;;;;;;1.30;0.60;;;16.70;99.00;;;;;;5091599;28;20036;-73
2022/09/09 03:50:50;;;;;;;0.63;0.60;;;16.70;99.20;;;;;;5091526;28;20069;-74
2022/09/09 03:53:19;;;;;;;0.70;0.70;;;16.70;99.40;;;;;;5091059;28;20097;-74
2022/09/09 03:55:50;;;;;;;0.93;0.63;;;16.70;99.30;;;;;;5091153;28;20131;-73
2022/09/09 03:58:18;;;;;;;0.80;0.60;;;16.70;99.60;;;;;;5091330;28;20085;-74
2022/09/09 04:00:52;;;;;;;1.00;0.80;;;16.70;99.50;;;;;;5091635;28;20349;-73
2022/09/09 04:03:18;;;;;;;0.95;0.60;;;16.70;99.60;;;;;;5091444;28;20020;-73
2022/09/09 04:05:44;;;;;;;0.90;0.50;;;16.60;99.60;;;;;;5091426;28;20032;-73
2022/09/09 04:08:09;;;;;;;2.70;1.58;;;16.60;99.80;;;;;;5090919;28;20479;-74
2022/09/09 04:10:38;;;;;;;1.30;0.75;;;16.60;99.90;;;;;;5091432;28;20038;-73
2022/09/09 04:13:05;;;;;;;1.08;0.70;;;16.60;99.90;;;;;;5090871;28;20496;-73
2022/09/09 04:15:31;;;;;;;1.70;0.63;;;16.50;99.90;;;;;;5091279;28;20104;-74
2022/09/09 04:17:56;;;;;;;1.92;0.85;;;16.50;99.90;;;;;;5090915;28;20110;-73
2022/09/09 04:20:23;;;;;;;1.27;0.60;;;16.60;99.90;;;;;;5091329;28;20478;-73
2022/09/09 04:22:48;;;;;;;1.05;0.80;;;16.50;99.90;;;;;;5091465;28;20051;-73
2022/09/09 04:25:14;;;;;;;1.83;0.80;;;16.50;99.90;;;;;;5090783;28;20463;-73
2022/09/09 04:27:40;;;;;;;3.78;0.85;;;16.50;99.90;;;;;;5072852;28;20465;-74
2022/09/09 04:30:07;;;;;;;2.65;0.80;;;16.50;99.90;;;;;;5090038;28;20028;-73
2022/09/09 04:32:36;;;;;;;1.70;0.90;;;16.60;99.90;;;;;;5070636;28;20025;-74
2022/09/09 04:35:03;;;;;;;1.10;0.80;;;16.50;99.90;;;;;;5052617;28;20048;-73
2022/09/09 04:37:28;;;;;;;2.30;1.20;;;16.50;99.90;;;;;;5070716;28;20388;-73
2022/09/09 04:39:54;;;;;;;1.67;1.00;;;16.50;99.90;;;;;;5052586;28;20116;-74
2022/09/09 04:42:20;;;;;;;4.85;1.15;;;16.50;99.90;;;;;;5070440;28;20095;-73
2022/09/09 04:44:45;;;;;;;2.28;1.38;;;16.60;99.90;;;;;;5053307;28;20461;-74
2022/09/09 04:47:11;;;;;;;3.90;1.70;;;16.60;99.90;;;;;;5071804;28;20464;-74
2022/09/09 04:49:38;;;;;;;3.38;1.50;;;16.50;99.90;;;;;;5071316;28;20035;-73
2022/09/09 04:52:04;;;;;;;2.53;1.20;;;16.50;99.90;;;;;;5070886;28;20029;-73
2022/09/09 04:54:30;;;;;;;2.55;1.40;;;16.50;99.90;;;;;;5070871;28;20040;-75
2022/09/09 04:56:55;;;;;;;2.25;1.33;;;16.50;99.90;;;;;;5070577;28;20076;-73
2022/09/09 04:59:22;;;;;;;6.53;2.80;;;16.50;99.90;;;;;;5071187;28;20029;-73
2022/09/09 05:01:49;;;;;;;2.35;1.55;;;16.60;99.90;;;;;;5053054;28;20072;-74
2022/09/09 05:04:15;;;;;;;1.70;1.38;;;16.50;99.90;;;;;;5073527;28;20108;-74
2022/09/09 05:06:42;;;;;;;2.42;1.05;;;16.50;99.90;;;;;;5074642;28;20032;-74
2022/09/09 05:09:08;;;;;;;2.90;1.48;;;16.50;99.90;;;;;;5074369;28;20365;-74
2022/09/09 05:11:36;;;;;;;2.30;0.98;;;16.50;99.90;;;;;;5074697;28;20089;-74
2022/09/09 05:14:03;;;;;;;2.15;1.15;;;16.50;99.90;;;;;;5074129;28;20059;-74
2022/09/09 05:16:28;;;;;;;2.25;1.30;;;16.50;99.90;;;;;;5074307;28;20093;-74
2022/09/09 05:18:54;;;;;;;3.80;1.00;;;16.50;99.90;;;;;;5074585;28;20028;-74
2022/09/09 05:21:22;;;;;;;1.23;1.10;;;16.50;99.90;;;;;;5074004;28;20021;-74
2022/09/09 05:23:49;;;;;;;2.47;1.25;;;16.50;99.90;;;;;;5074226;28;20457;-75
2022/09/09 05:26:17;;;;;;;1.77;1.30;;;16.50;99.90;;;;;;5073866;28;20054;-74
2022/09/09 05:28:43;;;;;;;2.45;1.38;;;16.50;99.90;;;;;;5073985;28;20029;-75
2022/09/09 05:31:12;;;;;;;2.97;1.33;;;16.50;99.90;;;;;;5072903;28;20070;-74
2022/09/09 05:33:40;;;;;;;1.75;1.35;;;16.50;99.90;;;;;;5073607;28;20031;-74
2022/09/09 05:36:13;;;;;;;2.78;1.50;;;16.50;99.90;;;;;;5073403;28;20476;-74
2022/09/09 05:38:40;;;;;;;2.33;1.30;;;16.50;99.90;;;;;;5073942;28;20024;-73
2022/09/09 05:41:06;;;;;;;3.33;1.85;;;16.50;99.90;;;;;;5073110;28;20056;-73
2022/09/09 05:43:34;;;;;;;2.92;1.52;;;16.50;99.90;;;;;;5074004;28;20028;-73
2022/09/09 05:46:02;;;;;;;2.22;1.55;;;16.60;99.90;;;;;;5073462;28;20039;-74
2022/09/09 05:48:33;;;;;;;3.17;1.70;;;16.70;99.90;;;;;;5073655;28;20491;-75
2022/09/09 05:51:00;;;;;;;2.13;1.50;;;16.80;99.90;;;;;;5073248;28;20029;-75
2022/09/09 05:53:27;;;;;;;2.13;1.55;;;16.90;99.90;;;;;;5073228;28;20040;-74
2022/09/09 05:56:04;;;;;;;3.13;1.40;;;17.00;99.90;;;;;;5073158;28;20481;-73
2022/09/09 05:58:34;;;;;;;2.60;1.50;;;17.10;99.90;;;;;;5073095;28;20029;-73
2022/09/09 06:01:08;;;;;;;2.78;1.60;;;17.20;99.90;;;;;;5072750;28;20461;-75
2022/09/09 06:03:35;;;;;;;3.72;1.70;;;17.30;99.90;;;;;;5073049;28;20159;-73
2022/09/09 06:06:05;;;;;;;3.78;1.98;;;17.40;99.90;;;;;;5055025;28;20105;-74
2022/09/09 06:08:31;;;;;;;4.03;1.77;;;17.50;99.90;;;;;;5073181;28;20055;-73
2022/09/09 06:11:10;;;;;;;2.90;1.90;;;17.60;99.90;;;;;;5073470;28;20021;-73
2022/09/09 06:13:39;;;;;;;3.17;1.92;;;17.60;99.90;;;;;;5073023;28;20103;-73
2022/09/09 06:16:08;;;;;;;6.15;2.00;;;17.70;99.90;;;;;;5072661;28;20115;-74
2022/09/09 06:18:34;;;;;;;5.93;1.70;;;17.70;99.90;;;;;;5072646;28;20424;-73
2022/09/09 06:21:02;;;;;;;5.03;1.80;;;17.70;99.90;;;;;;5072704;28;20028;-73
2022/09/09 06:23:28;;;;;;;3.42;1.75;;;17.80;99.90;;;;;;5054672;28;20033;-74
2022/09/09 06:26:10;;;;;;;2.47;1.55;;;17.90;99.60;;;;;;5072828;28;20078;-73
2022/09/09 06:28:36;;;;;;;2.85;1.88;;;17.80;99.50;;;;;;5073140;28;20028;-74
2022/09/09 06:31:04;;;;;;;2.80;2.00;;;17.90;99.60;;;;;;5072173;28;20044;-74
2022/09/09 06:33:41;;;;;;;7.10;2.17;;;18.00;99.30;;;;;;5072575;28;20078;-73
2022/09/09 06:36:14;;;;;;;2.25;1.98;;;18.20;99.50;;;;;;5072270;28;20031;-73
2022/09/09 06:38:42;;;;;;;3.40;1.88;;;18.40;99.30;;;;;;5072217;28;20424;-74
2022/09/09 06:41:09;;;;;;;5.53;2.13;;;18.70;98.70;;;;;;5071826;28;20024;-74
2022/09/09 06:43:35;;;;;;;3.28;1.60;;;19.10;97.80;;;;;;5072560;28;20024;-73
2022/09/09 06:46:02;;;;;;;4.47;1.63;;;19.40;96.80;;;;;;5072842;28;20025;-73
2022/09/09 06:48:28;;;;;;;2.05;1.50;;;19.60;94.30;;;;;;5072291;28;20036;-75
2022/09/09 06:51:08;;;;;;;2.42;1.30;;;19.70;94.30;;;;;;5072326;28;20063;-73
2022/09/09 06:53:35;;;;;;;2.75;1.50;;;19.80;94.50;;;;;;5072219;28;20054;-74
2022/09/09 06:56:10;;;;;;;5.65;2.83;;;19.80;93.80;;;;;;5072058;28;20467;-74
2022/09/09 06:58:45;;;;;;;3.42;1.67;;;19.90;93.80;;;;;;5072144;28;20445;-74
2022/09/09 07:01:16;;;;;;;3.65;1.58;;;20.00;93.80;;;;;;5071685;28;20036;-75
2022/09/09 07:03:45;;;;;;;5.07;1.58;;;20.20;93.90;;;;;;5072205;28;20510;-73
2022/09/09 07:06:17;;;;;;;3.22;1.30;;;20.70;93.90;;;;;;5071397;28;20069;-73
2022/09/09 07:08:43;;;;;;;3.25;1.50;;;21.70;90.80;;;;;;5071895;28;20421;-73
2022/09/09 07:11:09;;;;;;;3.08;1.90;;;22.20;83.90;;;;;;5071507;28;20025;-75
2022/09/09 07:13:35;;;;;;;3.10;1.65;;;23.10;80.50;;;;;;5071848;28;20036;-74
2022/09/09 07:16:12;;;;;;;3.50;1.58;;;23.60;75.20;;;;;;5071734;28;20073;-73
2022/09/09 07:18:39;;;;;;;3.30;1.23;;;23.40;74.10;;;;;;5053800;28;20032;-74
2022/09/09 07:21:06;;;;;;;1.50;1.40;;;23.50;73.70;;;;;;5071436;28;20029;-75
2022/09/09 07:23:32;;;;;;;2.17;1.42;;;23.20;74.10;;;;;;5071579;28;20122;-73
2022/09/09 07:25:58;;;;;;;3.28;2.08;;;22.90;74.40;;;;;;5070972;28;20107;-73
2022/09/09 07:28:26;;;;;;;5.03;1.48;;;22.70;75.50;;;;;;5052942;28;20060;-74
2022/09/09 07:31:02;;;;;;;1.20;1.10;;;22.60;76.70;;;;;;5071661;28;20067;-74
2022/09/09 07:33:33;;;;;;;1.50;1.15;;;23.20;79.90;;;;;;5070784;28;20016;-75
2022/09/09 07:36:13;;;;;;;2.75;1.10;;;24.50;73.50;;;;;;5053889;28;20017;-72
2022/09/09 07:38:45;;;;;;;4.27;1.33;;;25.20;69.20;;;;;;5053753;28;20040;-72
2022/09/09 07:41:14;;;;;;;2.35;1.20;;;26.10;68.20;;;;;;5071170;28;20384;-73
2022/09/09 07:43:41;;;;;;;1.85;1.20;;;26.80;64.70;;;;;;5071760;28;20050;-74
2022/09/09 07:46:08;;;;;;;2.55;1.00;;;27.10;61.80;;;;;;5071305;28;20104;-74
2022/09/09 07:48:35;;;;;;;1.83;1.00;;;28.00;59.20;;;;;;5071780;28;20054;-74
2022/09/09 07:51:19;;;;;;;4.05;1.40;;;27.70;57.20;;;;;;5071571;28;20438;-74
2022/09/09 07:53:46;;;;;;;1.80;1.55;;;27.10;58.10;;;;;;5071414;28;20035;-72
2022/09/09 07:56:16;;;;;;;2.72;1.08;;;26.70;58.90;;;;;;5070953;28;20024;-73
2022/09/09 07:58:44;;;;;;;2.88;1.58;;;26.40;60.50;;;;;;5071385;28;20033;-74
2022/09/09 08:01:20;;;;;;;7.20;4.22;;;26.10;61.20;;;;;;5070937;28;20116;-74
2022/09/09 08:03:52;;;;;;;3.53;1.70;;;25.60;61.40;;;;;;5071394;28;20028;-74
2022/09/09 08:06:18;;;;;;;2.08;1.42;;;25.30;63.00;;;;;;5070453;28;20449;-73
2022/09/09 08:08:43;;;;;;;3.78;1.33;;;24.90;63.40;;;;;;5071291;28;20148;-73
2022/09/09 08:11:12;;;;;;;2.42;1.63;;;24.50;64.50;;;;;;5070503;28;20020;-74
2022/09/09 08:13:39;;;;;;;1.83;1.25;;;24.30;66.10;;;;;;5070978;28;20024;-74
2022/09/09 08:16:26;;;;;;;3.55;1.58;;;24.00;67.20;;;;;;5071304;28;20119;-74
2022/09/09 08:18:53;;;;;;;2.83;1.58;;;23.80;67.60;;;;;;5070797;28;20028;-74
2022/09/09 08:21:21;;;;;;;4.57;1.40;;;23.80;68.50;;;;;;5070836;28;20506;-74
2022/09/09 08:23:49;;;;;;;2.85;1.48;;;23.80;67.90;;;;;;5071125;28;20095;-74
2022/09/09 08:26:19;;;;;;;2.95;1.50;;;24.20;68.30;;;;;;5070763;28;20066;-75
2022/09/09 08:28:45;;;;;;;4.57;1.58;;;24.70;68.10;;;;;;5071482;28;20078;-73
2022/09/09 08:31:13;;;;;;;2.67;1.30;;;25.70;64.80;;;;;;5073037;28;20060;-76
2022/09/09 08:33:39;;;;;;;2.60;1.38;;;26.00;63.90;;;;;;5072281;28;20036;-75
2022/09/09 08:36:06;;;;;;;3.10;1.40;;;26.00;62.40;;;;;;5071147;28;20124;-74
2022/09/09 08:38:33;;;;;;;3.92;1.52;;;25.90;61.70;;;;;;5074199;28;20036;-75
2022/09/09 08:41:10;;;;;;;1.90;1.40;;;25.70;61.50;;;;;;5056766;28;20464;-74
2022/09/09 08:43:35;;;;;;;5.22;2.00;;;25.70;63.10;;;;;;5074279;28;20203;-74
2022/09/09 08:46:23;;;;;;;2.78;1.27;;;25.80;62.70;;;;;;5074660;28;20441;-74
2022/09/09 08:49:01;;;;;;;5.25;1.55;;;26.00;63.10;;;;;;5074520;28;20422;-73
2022/09/09 08:51:30;;;;;;;1.65;1.48;;;26.00;61.30;;;;;;5074280;28;20033;-74
2022/09/09 08:54:00;;;;;;;2.38;1.25;;;26.20;60.20;;;;;;5056535;28;20035;-73
2022/09/09 08:56:28;;;;;;;3.22;1.80;;;26.10;60.50;;;;;;5073866;28;20479;-73
2022/09/09 08:58:56;;;;;;;3.38;1.60;;;26.10;60.70;;;;;;5074145;28;20032;-74
2022/09/09 09:01:55;;;;;;;2.03;1.10;;;26.10;59.30;;;;;;5055921;28;20028;-74
2022/09/09 09:04:30;;;;;;;1.58;0.85;;;25.90;60.50;;;;;;5073793;28;20032;-74
2022/09/09 09:07:29;;;;;;;1.40;1.13;;;25.80;58.50;;;;;;5074458;28;20044;-74
2022/09/09 09:10:05;;;;;;;1.67;1.00;;;25.90;60.30;;;;;;5074019;28;20350;-74
2022/09/09 09:12:42;;;;;;;3.08;1.00;;;26.00;59.50;;;;;;5074031;28;20029;-74
2022/09/09 09:15:21;;;;;;;1.33;0.90;;;26.10;58.40;;;;;;5074476;28;20081;-74
2022/09/09 09:17:48;;;;;;;2.72;1.05;;;26.00;57.90;;;;;;5073934;28;20037;-74
2022/09/09 09:20:16;;;;;;;2.05;1.00;;;26.10;59.30;;;;;;5073624;28;20044;-75
2022/09/09 09:22:50;;;;;;;5.80;1.23;;;26.10;58.00;;;;;;5074240;28;20072;-73
2022/09/09 09:25:37;;;;;;;1.50;1.17;;;26.30;59.10;;;;;;5073660;28;20081;-74
2022/09/09 09:28:10;;;;;;;1.40;1.30;;;26.30;57.20;;;;;;5073944;28;20027;-75
2022/09/09 09:30:41;;;;;;;1.85;1.08;;;26.20;58.10;;;;;;5073334;28;20063;-75
2022/09/09 09:33:27;;;;;;;1.95;0.60;;;26.30;58.40;;;;;;5073914;28;20099;-75
2022/09/09 09:35:53;;;;;;;1.85;0.80;;;26.30;55.50;;;;;;5073729;28;20024;-75
2022/09/09 09:38:27;;;;;;;0.80;0.70;;;26.30;55.50;;;;;;5073521;28;20033;-75
2022/09/09 09:40:57;;;;;;;0.98;0.70;;;26.30;55.90;;;;;;5074020;28;20020;-74
2022/09/09 09:43:33;;;;;;;2.30;0.60;;;26.20;56.40;;;;;;5073498;28;20095;-75
2022/09/09 09:45:59;;;;;;;1.92;1.20;;;26.30;56.40;;;;;;5073152;28;20472;-75
2022/09/09 09:48:27;;;;;;;0.80;0.70;;;26.30;56.30;;;;;;5072655;28;20028;-75
2022/09/09 09:50:57;;;;;;;6.43;0.95;;;26.30;54.60;;;;;;5073597;28;20032;-75
2022/09/09 09:53:33;;;;;;;6.20;1.58;;;26.30;56.10;;;;;;5073411;28;20021;-74
2022/09/09 09:56:06;;;;;;;1.92;1.10;;;26.40;57.40;;;;;;5073652;28;20056;-76
2022/09/09 09:58:54;;;;;;;1.20;0.90;;;26.40;58.00;;;;;;5072896;28;20330;-74
2022/09/09 10:01:29;;;;;;;1.10;1.00;;;26.50;57.60;;;;;;5073207;28;20071;-74
2022/09/09 10:04:00;;;;;;;3.67;1.23;;;26.50;58.00;;;;;;5073476;28;20020;-75
2022/09/09 10:06:36;;;;;;;2.22;1.55;;;26.50;58.20;;;;;;5073058;28;20024;-75
2022/09/09 10:09:07;;;;;;;2.85;2.00;;;26.50;58.10;;;;;;5073191;28;20039;-74
2022/09/09 10:11:45;;;;;;;2.80;1.08;;;26.40;58.00;;;;;;5054751;28;20443;-76
2022/09/09 10:14:22;;;;;;;5.75;1.33;;;26.40;58.20;;;;;;5073168;28;20032;-75
2022/09/09 10:17:27;;;;;;;3.25;1.05;;;26.40;59.00;;;;;;5073121;28;20037;-76
2022/09/09 10:20:21;;;;;;;2.85;1.10;;;26.30;58.80;;;;;;5073104;28;20054;-74
2022/09/09 10:23:17;;;;;;;3.25;1.02;;;26.30;59.30;;;;;;5070176;28;20059;-74
2022/09/09 10:26:01;;;;;;;2.53;0.90;;;26.30;59.30;;;;;;5073047;28;20024;-74
2022/09/09 10:28:43;;;;;;;4.97;0.90;;;26.30;59.60;;;;;;5071877;28;20094;-75
2022/09/09 10:31:24;;;;;;;3.05;1.35;;;26.40;59.70;;;;;;5072830;28;20118;-75
2022/09/09 10:33:55;;;;;;;1.15;0.90;;;26.20;58.50;;;;;;5072585;28;20024;-75
2022/09/09 10:36:24;;;;;;;2.00;1.00;;;26.20;59.00;;;;;;5072211;28;20024;-77
2022/09/09 10:39:18;;;;;;;0.75;0.65;;;26.10;57.50;;;;;;5072474;28;20120;-74
2022/09/09 10:41:59;;;;;;;0.85;0.60;;;26.10;57.70;;;;;;5072391;28;20395;-74
2022/09/09 10:45:10;;;;;;;1.55;0.82;;;26.20;57.90;;;;;;5072059;28;20078;-74
2022/09/09 10:47:41;;;;;;;1.45;0.77;;;26.20;58.00;;;;;;5055643;28;20055;-75
2022/09/09 10:50:21;;;;;;;1.80;0.90;;;26.20;59.60;;;;;;5072277;28;20028;-74
2022/09/09 10:53:13;;;;;;;1.27;0.80;;;26.20;59.70;;;;;;5072449;28;20028;-75
2022/09/09 10:55:45;;;;;;;1.52;0.82;;;26.10;59.30;;;;;;5071714;28;20055;-75
2022/09/09 10:58:20;;;;;;;0.82;0.70;;;26.00;60.00;;;;;;5072205;28;20408;-74
2022/09/09 11:00:52;;;;;;;0.77;0.77;;;26.00;59.80;;;;;;5070730;28;20032;-75
2022/09/09 11:03:40;;;;;;;3.38;1.13;;;26.00;59.00;;;;;;5072152;28;20031;-76
2022/09/09 11:06:14;;;;;;;1.98;0.70;;;26.00;58.70;;;;;;5071953;28;20056;-74
2022/09/09 11:08:40;;;;;;;0.80;0.68;;;25.90;58.20;;;;;;5072041;28;20495;-74
2022/09/09 11:11:18;;;;;;;0.93;0.70;;;25.90;58.80;;;;;;5072103;28;20028;-75
2022/09/09 11:14:02;;;;;;;1.10;0.65;;;25.80;58.60;;;;;;5071633;28;20036;-74
2022/09/09 11:16:45;;;;;;;1.67;0.70;;;25.70;57.50;;;;;;5071633;28;20037;-75
2022/09/09 11:19:28;;;;;;;1.23;0.65;;;25.60;56.80;;;;;;5071592;28;20488;-74
2022/09/09 11:21:55;;;;;;;4.80;1.08;;;25.50;56.60;;;;;;5072135;28;20029;-74
2022/09/09 11:24:46;;;;;;;3.28;0.77;;;25.50;57.30;;;;;;5071722;28;20103;-75
2022/09/09 11:27:51;;;;;;;0.93;0.60;;;25.50;57.10;;;;;;5071826;28;20055;-75
2022/09/09 11:30:20;;;;;;;1.63;0.60;;;25.50;56.20;;;;;;5071534;28;20366;-74
2022/09/09 11:33:16;;;;;;;0.93;0.68;;;25.40;56.20;;;;;;5091705;28;20036;-75
2022/09/09 11:36:26;;;;;;;1.63;1.15;;;25.50;56.70;;;;;;5091368;28;20111;-75
2022/09/09 11:38:59;;;;;;;3.50;2.78;;;25.40;56.00;;;;;;5091147;28;20032;-74
2022/09/09 11:41:34;;;;;;;0.85;0.70;;;25.40;55.60;;;;;;5092032;28;20036;-77
2022/09/09 11:44:10;;;;;;;0.60;0.60;;;25.30;55.90;;;;;;5092375;28;20031;-76
2022/09/09 11:46:38;;;;;;;3.10;0.98;;;25.30;55.90;;;;;;5091294;28;20016;-74
2022/09/09 11:49:06;;;;;;;0.70;0.70;;;25.30;56.10;;;;;;5073326;28;20123;-74
2022/09/09 11:51:33;;;;;;;1.05;0.65;;;25.30;56.00;;;;;;5091157;28;20032;-75
2022/09/09 11:54:02;;;;;;;1.98;0.95;;;25.30;55.90;;;;;;5091526;28;20028;-75
2022/09/09 11:56:45;;;;;;;0.85;0.73;;;25.30;55.40;;;;;;5090914;28;20035;-75
2022/09/09 11:59:26;;;;;;;1.27;0.60;;;25.40;55.60;;;;;;5091609;28;20214;-75
2022/09/09 12:01:58;;;;;;;2.60;0.80;;;25.40;56.00;;;;;;5091926;28;20059;-75
2022/09/09 12:04:24;;;;;;;1.38;0.80;;;25.30;55.80;;;;;;5092167;28;20032;-74
2022/09/09 12:07:25;;;;;;;1.75;0.73;;;25.30;56.50;;;;;;5072736;28;20526;-75
2022/09/09 12:09:52;;;;;;;;;;;25.30;56.70;;;;;;5046620;28;20040;-74
2022/09/09 12:12:33;;;;;;;2.83;0.80;;;25.40;56.10;;;;;;5093358;28;19904;-74
2022/09/09 12:15:07;;;;;;;1.98;0.73;;;25.30;55.20;;;;;;5095926;28;20030;-74
2022/09/09 12:17:44;;;;;;;0.88;0.60;;;25.30;56.10;;;;;;5095020;28;20024;-74
2022/09/09 12:20:14;;;;;;;0.88;0.55;;;25.30;56.80;;;;;;5096681;28;20441;-74
2022/09/09 12:22:42;;;;;;;2.90;0.83;;;25.30;56.10;;;;;;5098912;28;20100;-75
2022/09/09 12:25:26;;;;;;;0.40;0.40;;;25.30;55.90;;;;;;5095150;28;20384;-75
2022/09/09 12:28:27;;;;;;;4.00;0.70;;;25.30;55.20;;;;;;5093378;28;20061;-75
2022/09/09 12:31:08;;;;;;;0.63;0.50;;;25.30;54.90;;;;;;5073367;28;20094;-75
2022/09/09 12:33:40;;;;;;;;;;;25.30;54.40;;;;;;5074838;28;20067;-75
2022/09/09 12:36:16;;;;;;;1.35;0.65;;;25.30;55.10;;;;;;5074723;28;19908;-74
2022/09/09 12:38:43;;;;;;;1.45;0.80;;;25.30;55.70;;;;;;5074113;28;20082;-75
2022/09/09 12:41:26;;;;;;;1.10;0.63;;;25.30;55.20;;;;;;5074475;28;20098;-75
2022/09/09 12:44:08;;;;;;;0.60;0.60;;;25.20;54.20;;;;;;5074523;28;20416;-75
2022/09/09 12:46:41;;;;;;;1.52;0.70;;;25.20;54.30;;;;;;5074173;28;20021;-74
2022/09/09 12:49:38;;;;;;;4.10;1.10;;;25.20;54.60;;;;;;5074582;28;20039;-75
2022/09/09 12:52:29;;;;;;;1.08;0.70;;;25.20;54.30;;;;;;5074236;28;20028;-75
2022/09/09 12:54:56;;;;;;;0.52;0.52;;;25.20;54.60;;;;;;5073829;28;20033;-75
2022/09/09 12:57:25;;;;;;;1.10;0.73;;;25.20;54.70;;;;;;5074251;28;20376;-75
2022/09/09 12:59:51;;;;;;;1.80;0.60;;;25.20;54.10;;;;;;5073742;28;20037;-73
2022/09/09 13:02:25;;;;;;;1.25;0.68;;;25.20;53.80;;;;;;5074355;28;20368;-75
2022/09/09 13:04:52;;;;;;;1.77;0.73;;;25.20;54.30;;;;;;5073826;28;20025;-75
2022/09/09 13:07:20;;;;;;;0.60;0.60;;;25.20;55.40;;;;;;5074027;28;20487;-74
2022/09/09 13:09:46;;;;;;;1.45;0.95;;;25.20;56.00;;;;;;5073732;28;20114;-75
2022/09/09 13:12:22;;;;;;;1.88;0.90;;;25.20;55.80;;;;;;5073883;28;20024;-74
2022/09/09 13:14:51;;;;;;;1.73;0.85;;;25.10;56.10;;;;;;5073595;28;20027;-75
2022/09/09 13:17:23;;;;;;;1.65;0.98;;;25.10;55.90;;;;;;5073912;28;20461;-74
2022/09/09 13:19:52;;;;;;;1.52;0.88;;;25.00;56.40;;;;;;5073661;28;20025;-74